createdAt,value
2022-11-03T00:01:38.637Z,1.35
2022-11-03T00:04:07.482Z,1.30
2022-11-03T00:06:34.932Z,1.60
2022-11-03T00:09:04.115Z,1.00
2022-11-03T00:11:34.453Z,0.90
2022-11-03T00:14:01.693Z,1.23
2022-11-03T00:16:28.337Z,1.30
2022-11-03T00:18:55.260Z,1.23
2022-11-03T00:21:22.237Z,1.13
2022-11-03T00:23:49.208Z,0.95
2022-11-03T00:26:18.949Z,1.30
2022-11-03T00:28:47.580Z,1.30
2022-11-03T00:31:16.699Z,1.30
2022-11-03T00:33:44.553Z,1.33
2022-11-03T00:36:13.827Z,1.30
2022-11-03T00:38:40.871Z,1.05
2022-11-03T00:41:07.425Z,1.50
2022-11-03T00:43:35.386Z,1.23
2022-11-03T00:46:02.486Z,1.60
2022-11-03T00:48:35.231Z,1.48
2022-11-03T00:51:09.737Z,1.60
2022-11-03T00:53:44.281Z,1.75
2022-11-03T00:56:14.409Z,1.80
2022-11-03T00:58:42.323Z,2.00
2022-11-03T01:01:22.743Z,1.58
2022-11-03T01:04:10.178Z,1.60
2022-11-03T01:06:51.985Z,1.80
2022-11-03T01:09:38.746Z,2.10
2022-11-03T01:12:17.834Z,1.98
2022-11-03T01:14:50.138Z,2.35
2022-11-03T01:17:21.714Z,3.03
2022-11-03T01:19:48.750Z,2.83
2022-11-03T01:22:16.420Z,3.10
2022-11-03T01:24:43.573Z,2.45
2022-11-03T01:27:13.179Z,2.60
2022-11-03T01:29:40.151Z,2.72
2022-11-03T01:32:08.542Z,2.53
2022-11-03T01:34:35.779Z,2.78
2022-11-03T01:37:02.608Z,2.47
2022-11-03T01:39:29.895Z,3.15
2022-11-03T01:41:56.804Z,3.22
2022-11-03T01:44:23.535Z,3.40
2022-11-03T01:47:16.288Z,4.20
2022-11-03T01:49:56.042Z,4.25
2022-11-03T01:52:28.105Z,4.20
2022-11-03T01:55:17.215Z,4.63
2022-11-03T01:57:49.957Z,4.25
2022-11-03T02:00:16.666Z,5.00
2022-11-03T02:02:44.009Z,4.53
2022-11-03T02:05:12.776Z,4.68
2022-11-03T02:07:46.260Z,4.85
2022-11-03T02:10:13.184Z,5.72
2022-11-03T02:12:40.234Z,5.80
2022-11-03T02:15:10.577Z,5.72
2022-11-03T02:17:39.956Z,6.15
2022-11-03T02:20:23.603Z,5.55
2022-11-03T02:23:40.701Z,5.60
2022-11-03T02:26:09.689Z,5.53
2022-11-03T02:28:36.548Z,5.72
2022-11-03T02:31:38.258Z,5.82
2022-11-03T02:34:23.803Z,6.00
2022-11-03T02:36:56.092Z,6.40
2022-11-03T02:39:41.699Z,5.93
2022-11-03T02:42:10.785Z,6.68
2022-11-03T02:44:39.212Z,6.07
2022-11-03T02:47:10.088Z,6.00
2022-11-03T02:49:45.460Z,6.45
2022-11-03T02:52:38.613Z,6.82
2022-11-03T02:55:37.272Z,6.25
2022-11-03T02:58:06.777Z,6.25
2022-11-03T03:00:56.097Z,5.90
2022-11-03T03:03:28.359Z,5.80
2022-11-03T03:06:02.280Z,6.25
2022-11-03T03:08:30.644Z,5.82
2022-11-03T03:11:00.820Z,4.53
2022-11-03T03:13:27.622Z,4.35
2022-11-03T03:16:21.264Z,4.22
2022-11-03T03:18:54.310Z,4.35
2022-11-03T03:21:29.458Z,4.35
2022-11-03T03:23:59.881Z,4.70
2022-11-03T03:26:45.534Z,3.92
2022-11-03T03:29:25.229Z,4.07
2022-11-03T03:31:58.175Z,4.57
2022-11-03T03:34:36.078Z,4.20
2022-11-03T03:37:06.090Z,4.57
2022-11-03T03:39:38.212Z,4.47
2022-11-03T03:42:08.783Z,4.40
2022-11-03T03:44:37.778Z,4.82
2022-11-03T03:47:11.636Z,5.13
2022-11-03T03:49:38.228Z,4.80
2022-11-03T03:52:05.124Z,5.53
2022-11-03T03:54:31.705Z,5.85
2022-11-03T03:57:04.125Z,5.43
2022-11-03T03:59:31.271Z,5.88
2022-11-03T04:01:59.258Z,6.20
2022-11-03T04:04:25.970Z,5.95
2022-11-03T04:07:12.585Z,6.22
2022-11-03T04:09:39.217Z,6.38
2022-11-03T04:12:24.652Z,7.00
2022-11-03T04:15:09.752Z,6.40
2022-11-03T04:17:55.049Z,6.45
2022-11-03T04:20:40.118Z,6.93
2022-11-03T04:23:06.751Z,6.75
2022-11-03T04:25:34.752Z,7.32
2022-11-03T04:28:02.198Z,6.95
2022-11-03T04:30:28.792Z,7.95
2022-11-03T04:32:55.658Z,7.55
2022-11-03T04:35:24.982Z,8.68
2022-11-03T04:37:57.313Z,7.70
2022-11-03T04:40:24.584Z,7.80
2022-11-03T04:42:51.266Z,7.70
2022-11-03T04:45:26.236Z,7.70
2022-11-03T04:47:54.098Z,7.53
2022-11-03T04:50:23.314Z,8.27
2022-11-03T04:52:56.537Z,7.65
2022-11-03T04:55:23.327Z,8.05
2022-11-03T04:57:57.228Z,7.93
2022-11-03T05:00:23.830Z,7.45
2022-11-03T05:02:55.842Z,8.13
2022-11-03T05:05:25.588Z,8.05
2022-11-03T05:07:54.118Z,8.50
2022-11-03T05:10:26.399Z,8.38
2022-11-03T05:12:55.094Z,9.27
2022-11-03T05:15:42.921Z,7.95
2022-11-03T05:18:32.851Z,8.05
2022-11-03T05:21:13.790Z,8.55
2022-11-03T05:23:44.274Z,8.13
2022-11-03T05:26:37.002Z,8.65
2022-11-03T05:29:09.512Z,10.90
2022-11-03T05:31:37.304Z,10.80
2022-11-03T05:34:31.130Z,12.02
2022-11-03T05:37:26.021Z,11.32
2022-11-03T05:39:56.737Z,11.90
2022-11-03T05:42:23.217Z,10.25
2022-11-03T05:44:52.951Z,11.77
2022-11-03T05:47:22.378Z,10.57
2022-11-03T05:49:52.660Z,11.82
2022-11-03T05:52:27.392Z,12.13
2022-11-03T05:54:57.144Z,14.07
2022-11-03T05:57:25.620Z,12.73
2022-11-03T05:59:52.657Z,13.10
2022-11-03T06:02:41.806Z,12.15
2022-11-03T06:05:28.715Z,11.40
2022-11-03T06:08:00.030Z,11.40
2022-11-03T06:10:49.016Z,11.38
2022-11-03T06:13:24.969Z,11.75
2022-11-03T06:15:59.408Z,11.55
2022-11-03T06:18:31.492Z,11.73
2022-11-03T06:21:22.942Z,11.38
2022-11-03T06:23:49.558Z,11.30
2022-11-03T06:26:24.431Z,12.70
2022-11-03T06:28:51.565Z,12.65
2022-11-03T06:31:28.351Z,13.32
2022-11-03T06:33:57.777Z,12.50
2022-11-03T06:36:36.013Z,11.75
2022-11-03T06:39:10.183Z,13.48
2022-11-03T06:41:37.326Z,12.65
2022-11-03T06:44:25.914Z,12.07
2022-11-03T06:47:13.953Z,13.23
2022-11-03T06:49:40.569Z,12.55
2022-11-03T06:52:28.469Z,12.07
2022-11-03T06:55:12.199Z,12.70
2022-11-03T06:57:44.709Z,13.88
2022-11-03T07:00:35.536Z,12.05
2022-11-03T07:03:08.599Z,12.05
2022-11-03T07:05:36.090Z,12.85
2022-11-03T07:08:13.344Z,12.32
2022-11-03T07:10:39.891Z,12.65
2022-11-03T07:13:15.623Z,12.43
2022-11-03T07:15:43.949Z,12.43
2022-11-03T07:18:17.077Z,11.82
2022-11-03T07:20:43.687Z,11.68
2022-11-03T07:23:15.711Z,12.07
2022-11-03T07:25:42.394Z,12.20
2022-11-03T07:28:10.681Z,12.77
2022-11-03T07:30:37.337Z,13.45
2022-11-03T07:33:21.201Z,12.23
2022-11-03T07:38:35.796Z,11.70
2022-11-03T07:41:02.424Z,12.70
2022-11-03T07:43:33.541Z,13.55
2022-11-03T07:46:02.675Z,14.00
2022-11-03T07:48:48.171Z,13.02
2022-11-03T07:51:29.900Z,13.25
2022-11-03T07:54:19.740Z,12.63
2022-11-03T07:56:50.968Z,14.23
2022-11-03T07:59:42.118Z,14.98
2022-11-03T08:02:21.844Z,12.98
2022-11-03T08:04:48.491Z,12.43
2022-11-03T08:07:15.026Z,12.55
2022-11-03T08:09:41.914Z,14.55
2022-11-03T08:12:08.717Z,13.82
2022-11-03T08:14:35.463Z,13.15
2022-11-03T08:17:02.206Z,14.70
2022-11-03T08:19:28.813Z,13.73
2022-11-03T08:21:55.574Z,14.35
2022-11-03T08:24:22.518Z,13.57
2022-11-03T08:26:49.406Z,11.88
2022-11-03T08:29:17.728Z,12.20
2022-11-03T08:31:44.622Z,11.65
2022-11-03T08:34:11.669Z,10.93
2022-11-03T08:36:38.579Z,11.18
2022-11-03T08:39:05.729Z,10.57
2022-11-03T08:41:32.467Z,11.20
2022-11-03T08:43:59.022Z,10.85
2022-11-03T08:46:25.568Z,11.15
2022-11-03T08:48:52.504Z,11.15
2022-11-03T08:51:19.289Z,10.82
2022-11-03T08:53:50.759Z,10.35
2022-11-03T08:56:20.457Z,12.25
2022-11-03T08:58:48.899Z,12.20
2022-11-03T09:01:15.681Z,10.73
2022-11-03T09:03:42.642Z,11.45
2022-11-03T09:06:09.304Z,10.57
2022-11-03T09:11:22.597Z,11.15
2022-11-03T09:13:49.195Z,11.30
2022-11-03T09:16:16.082Z,9.95
2022-11-03T09:18:42.894Z,10.18
2022-11-03T09:21:09.749Z,9.73
2022-11-03T09:23:36.448Z,10.13
2022-11-03T09:26:03.041Z,9.98
2022-11-03T09:28:29.589Z,9.35
2022-11-03T09:30:56.173Z,9.20
2022-11-03T09:33:22.995Z,10.20
2022-11-03T09:35:49.676Z,11.18
2022-11-03T09:38:16.260Z,10.45
2022-11-03T09:40:43.008Z,11.43
2022-11-03T09:43:10.250Z,11.75
2022-11-03T09:45:38.647Z,9.52
2022-11-03T09:48:06.066Z,9.52
2022-11-03T09:50:32.940Z,9.48
2022-11-03T09:52:59.581Z,10.20
2022-11-03T09:55:27.576Z,9.55
2022-11-03T09:58:08.879Z,9.18
2022-11-03T10:00:35.689Z,8.73
2022-11-03T10:03:04.942Z,9.20
2022-11-03T10:05:32.230Z,9.50
2022-11-03T10:08:05.526Z,8.90
2022-11-03T10:10:33.420Z,8.30
2022-11-03T10:13:01.083Z,9.52
2022-11-03T10:15:28.059Z,8.05
2022-11-03T10:17:55.924Z,8.73
2022-11-03T10:20:22.967Z,8.60
2022-11-03T10:22:54.589Z,8.43
2022-11-03T10:25:33.512Z,8.30
2022-11-03T10:28:15.352Z,8.52
2022-11-03T10:33:51.846Z,8.27
2022-11-03T10:36:18.347Z,5.85
2022-11-03T10:38:45.613Z,7.40
2022-11-03T10:41:17.900Z,7.10
2022-11-03T10:43:59.046Z,6.72
2022-11-03T10:49:15.243Z,5.95
2022-11-03T10:51:44.183Z,5.63
2022-11-03T10:54:16.498Z,4.15
2022-11-03T10:56:44.471Z,3.25
2022-11-03T10:59:20.370Z,4.28
2022-11-03T11:01:47.478Z,5.68
2022-11-03T11:04:18.417Z,5.38
2022-11-03T11:06:46.358Z,6.25
2022-11-03T11:09:22.971Z,5.10
2022-11-03T11:12:02.568Z,3.63
2022-11-03T11:14:29.588Z,2.22
2022-11-03T11:16:58.637Z,1.30
2022-11-03T11:19:27.114Z,2.00
2022-11-03T11:21:53.746Z,1.08
2022-11-03T11:24:45.428Z,2.78
2022-11-03T11:27:31.935Z,4.72
2022-11-03T11:30:05.075Z,4.03
2022-11-03T11:32:48.236Z,4.05
2022-11-03T11:35:18.377Z,3.90
2022-11-03T11:37:45.078Z,3.58
2022-11-03T11:40:25.342Z,2.55
2022-11-03T11:43:13.396Z,2.75
2022-11-03T11:46:17.878Z,2.70
2022-11-03T11:48:44.594Z,2.17
2022-11-03T11:51:12.252Z,1.15
2022-11-03T11:53:43.232Z,0.93
2022-11-03T11:56:16.718Z,1.92
2022-11-03T11:58:53.035Z,2.90
2022-11-03T12:01:33.331Z,3.03
2022-11-03T12:04:21.878Z,1.52
2022-11-03T12:06:48.687Z,1.73
2022-11-03T12:09:15.203Z,2.15
2022-11-03T12:11:55.492Z,2.33
2022-11-03T12:14:29.109Z,2.15
2022-11-03T12:17:00.097Z,1.20
2022-11-03T12:19:43.980Z,1.27
2022-11-03T12:22:10.610Z,1.40
2022-11-03T12:24:49.658Z,0.80
2022-11-03T12:27:24.993Z,1.35
2022-11-03T12:29:52.807Z,1.25
2022-11-03T12:32:33.163Z,1.23
2022-11-03T12:35:01.744Z,1.33
2022-11-03T12:37:28.359Z,1.90
2022-11-03T12:39:54.946Z,2.00
2022-11-03T12:42:22.731Z,1.25
2022-11-03T12:44:49.279Z,1.33
2022-11-03T12:47:15.835Z,1.45
2022-11-03T12:49:42.402Z,1.95
2022-11-03T12:52:10.602Z,2.38
2022-11-03T12:54:37.271Z,2.10
2022-11-03T12:57:03.935Z,2.70
2022-11-03T12:59:30.685Z,2.33
2022-11-03T13:01:57.387Z,2.67
2022-11-03T13:04:24.098Z,2.35
2022-11-03T13:06:50.714Z,2.40
2022-11-03T13:09:17.291Z,1.73
2022-11-03T13:12:02.452Z,2.22
2022-11-03T13:14:29.075Z,2.45
2022-11-03T13:16:55.635Z,1.60
2022-11-03T13:19:23.080Z,2.20
2022-11-03T13:21:49.682Z,1.80
2022-11-03T13:24:16.273Z,2.10
2022-11-03T13:26:42.878Z,2.20
2022-11-03T13:29:09.529Z,2.30
2022-11-03T13:31:36.051Z,2.08
2022-11-03T13:34:02.798Z,2.30
2022-11-03T13:36:41.263Z,2.75
2022-11-03T13:39:07.878Z,1.90
2022-11-03T13:41:34.402Z,2.20
2022-11-03T13:44:01.044Z,2.38
2022-11-03T13:46:27.640Z,2.10
2022-11-03T13:51:41.058Z,2.88
2022-11-03T13:59:41.392Z,2.33
2022-11-03T14:04:56.061Z,2.25
2022-11-03T14:07:22.782Z,2.38
2022-11-03T14:09:49.401Z,2.45
2022-11-03T14:12:31.240Z,2.92
2022-11-03T14:14:59.193Z,2.50
2022-11-03T14:17:26.069Z,2.70
2022-11-03T14:20:00.756Z,3.38
2022-11-03T14:22:33.115Z,2.78
2022-11-03T14:25:01.141Z,2.58
2022-11-03T14:27:28.570Z,3.45
2022-11-03T14:29:55.412Z,3.22
2022-11-03T14:32:22.212Z,3.45
2022-11-03T14:34:48.961Z,3.15
2022-11-03T14:37:16.338Z,2.75
2022-11-03T14:39:43.297Z,2.70
2022-11-03T14:42:17.349Z,2.75
2022-11-03T14:44:48.008Z,1.90
2022-11-03T14:47:19.366Z,2.83
2022-11-03T14:49:46.833Z,2.47
2022-11-03T14:52:14.914Z,3.10
2022-11-03T14:54:42.480Z,3.30
2022-11-03T14:57:09.931Z,2.53
2022-11-03T14:59:36.637Z,2.78
2022-11-03T15:02:04.140Z,2.83
2022-11-03T15:04:30.876Z,3.33
2022-11-03T15:06:57.549Z,3.97
2022-11-03T15:09:24.257Z,3.13
2022-11-03T15:11:50.962Z,3.17
2022-11-03T15:14:17.625Z,3.88
2022-11-03T15:16:46.172Z,3.40
2022-11-03T15:19:13.196Z,3.72
2022-11-03T15:21:39.777Z,3.72
2022-11-03T15:26:53.323Z,4.53
2022-11-03T15:29:20.317Z,5.10
2022-11-03T15:31:48.455Z,4.97
2022-11-03T15:34:16.576Z,5.13
2022-11-03T15:36:43.591Z,5.93
2022-11-03T15:39:10.209Z,5.13
2022-11-03T15:41:36.945Z,4.95
2022-11-03T15:44:03.917Z,5.22
2022-11-03T15:46:30.538Z,5.43
2022-11-03T15:48:57.876Z,4.75
2022-11-03T15:51:24.750Z,4.88
2022-11-03T15:53:56.953Z,4.60
2022-11-03T15:56:28.296Z,4.93
2022-11-03T15:58:54.948Z,4.07
2022-11-03T16:01:22.088Z,3.80
2022-11-03T16:03:48.882Z,12.55
2022-11-03T16:06:15.619Z,9.23
2022-11-03T16:08:42.305Z,7.63
2022-11-03T16:11:09.334Z,8.77
2022-11-03T16:13:36.294Z,8.55
2022-11-03T16:16:03.167Z,5.15
2022-11-03T16:18:29.773Z,5.15
2022-11-03T16:20:56.394Z,5.30
2022-11-03T16:23:22.942Z,4.60
2022-11-03T16:25:55.373Z,3.75
2022-11-03T16:28:22.150Z,4.05
2022-11-03T16:31:09.832Z,4.25
2022-11-03T16:33:36.398Z,4.20
2022-11-03T16:36:03.028Z,4.63
2022-11-03T16:38:29.972Z,5.05
2022-11-03T16:40:56.731Z,4.95
2022-11-03T16:43:23.314Z,4.50
2022-11-03T16:45:49.989Z,5.70
2022-11-03T16:48:16.677Z,6.45
2022-11-03T16:50:44.757Z,6.63
2022-11-03T16:53:11.694Z,5.38
2022-11-03T16:55:38.230Z,5.43
2022-11-03T16:58:05.261Z,5.43
2022-11-03T17:00:32.558Z,6.15
2022-11-03T17:03:00.199Z,5.53
2022-11-03T17:05:27.240Z,6.22
2022-11-03T17:07:54.506Z,5.28
2022-11-03T17:10:22.620Z,4.63
2022-11-03T17:12:50.262Z,4.55
2022-11-03T17:15:20.247Z,4.70
2022-11-03T17:17:47.332Z,5.13
2022-11-03T17:20:14.695Z,5.38
2022-11-03T17:22:41.523Z,5.55
2022-11-03T17:25:10.925Z,5.32
2022-11-03T17:27:43.136Z,5.05
2022-11-03T17:30:20.006Z,5.45
2022-11-03T17:32:47.949Z,5.15
2022-11-03T17:35:20.804Z,5.80
2022-11-03T17:37:48.496Z,5.57
2022-11-03T17:40:22.815Z,5.47
2022-11-03T17:42:50.554Z,6.25
2022-11-03T17:45:20.806Z,5.00
2022-11-03T17:47:47.433Z,5.95
2022-11-03T17:50:16.219Z,5.75
2022-11-03T17:52:45.773Z,5.53
2022-11-03T17:55:21.436Z,5.57
2022-11-03T17:57:48.672Z,5.30
2022-11-03T18:00:18.179Z,6.00
2022-11-03T18:02:45.633Z,5.30
2022-11-03T18:05:15.347Z,6.80
2022-11-03T18:07:45.235Z,5.82
2022-11-03T18:10:11.944Z,5.90
2022-11-03T18:13:01.819Z,6.07
2022-11-03T18:15:30.974Z,6.07
2022-11-03T18:17:57.597Z,6.18
2022-11-03T18:20:29.420Z,6.80
2022-11-03T18:23:20.067Z,7.05
2022-11-03T18:25:47.906Z,6.70
2022-11-03T18:28:15.391Z,7.10
2022-11-03T18:30:45.543Z,7.00
2022-11-03T18:33:34.154Z,6.80
2022-11-03T18:36:04.674Z,6.20
2022-11-03T18:38:31.331Z,6.00
2022-11-03T18:40:57.970Z,6.32
2022-11-03T18:43:25.219Z,6.50
2022-11-03T18:45:52.911Z,5.90
2022-11-03T18:48:19.729Z,6.95
2022-11-03T18:50:52.697Z,6.32
2022-11-03T18:53:21.909Z,6.82
2022-11-03T18:55:49.085Z,7.70
2022-11-03T18:58:24.313Z,7.25
2022-11-03T19:00:52.904Z,7.40
2022-11-03T19:03:22.278Z,6.88
2022-11-03T19:05:52.262Z,7.82
2022-11-03T19:08:28.434Z,8.27
2022-11-03T19:10:56.343Z,9.18
2022-11-03T19:13:28.867Z,7.70
2022-11-03T19:15:56.889Z,8.38
2022-11-03T19:18:23.680Z,6.40
2022-11-03T19:20:50.244Z,7.15
2022-11-03T19:23:17.127Z,7.47
2022-11-03T19:25:45.297Z,7.70
2022-11-03T19:28:20.484Z,7.07
2022-11-03T19:30:47.728Z,7.32
2022-11-03T19:33:24.774Z,7.43
2022-11-03T19:35:52.250Z,7.05
2022-11-03T19:38:19.953Z,7.28
2022-11-03T19:41:16.279Z,7.28
2022-11-03T19:43:43.014Z,7.25
2022-11-03T19:46:17.534Z,6.82
2022-11-03T19:48:44.153Z,6.22
2022-11-03T19:51:13.072Z,6.57
2022-11-03T19:53:44.495Z,6.55
2022-11-03T19:56:15.754Z,7.07
2022-11-03T19:58:42.421Z,6.70
2022-11-03T20:01:09.587Z,7.20
2022-11-03T20:03:36.597Z,6.72
2022-11-03T20:06:03.425Z,7.95
2022-11-03T20:08:32.436Z,9.13
2022-11-03T20:10:59.612Z,8.32
2022-11-03T20:13:37.336Z,9.57
2022-11-03T20:16:05.590Z,9.77
2022-11-03T20:18:32.157Z,11.27
2022-11-03T20:20:59.137Z,11.70
2022-11-03T20:23:32.947Z,12.18
2022-11-03T20:26:01.063Z,10.63
2022-11-03T20:28:30.232Z,11.50
2022-11-03T20:30:57.868Z,10.60
2022-11-03T20:33:25.144Z,9.20
2022-11-03T20:35:53.712Z,8.30
2022-11-03T20:38:21.879Z,9.43
2022-11-03T20:40:51.325Z,9.57
2022-11-03T20:43:39.326Z,10.40
2022-11-03T20:46:18.118Z,9.27
2022-11-03T20:48:44.680Z,8.60
2022-11-03T20:51:14.989Z,10.18
2022-11-03T20:53:41.727Z,10.40
2022-11-03T20:56:19.779Z,10.88
2022-11-03T20:58:46.702Z,8.82
2022-11-03T21:01:30.688Z,9.13
2022-11-03T21:04:00.227Z,9.98
2022-11-03T21:06:28.847Z,9.82
2022-11-03T21:08:55.932Z,8.40
2022-11-03T21:11:28.974Z,8.60
2022-11-03T21:14:01.331Z,8.80
2022-11-03T21:16:48.386Z,8.45
2022-11-03T21:19:43.715Z,9.57
2022-11-03T21:22:45.916Z,9.40
2022-11-03T21:25:13.040Z,11.55
2022-11-03T21:27:42.114Z,12.10
2022-11-03T21:30:11.385Z,11.93
2022-11-03T21:32:37.973Z,11.07
2022-11-03T21:35:05.989Z,12.43
2022-11-03T21:37:32.799Z,12.02
2022-11-03T21:39:59.392Z,11.77
2022-11-03T21:42:45.039Z,11.60
2022-11-03T21:45:12.640Z,12.45
2022-11-03T21:47:39.227Z,12.68
2022-11-03T21:50:06.259Z,11.63
2022-11-03T21:52:32.894Z,11.40
2022-11-03T21:55:01.200Z,11.55
2022-11-03T21:57:29.010Z,10.95
2022-11-03T21:59:58.972Z,11.25
2022-11-03T22:02:30.265Z,10.48
2022-11-03T22:04:57.368Z,10.70
2022-11-03T22:07:24.426Z,11.05
2022-11-03T22:09:51.170Z,8.93
2022-11-03T22:12:17.757Z,8.60
2022-11-03T22:15:02.577Z,8.70
2022-11-03T22:17:29.152Z,8.18
2022-11-03T22:20:13.899Z,8.48
2022-11-03T22:22:59.046Z,8.10
2022-11-03T22:25:44.042Z,8.70
2022-11-03T22:28:14.631Z,9.00
2022-11-03T22:31:00.168Z,9.23
2022-11-03T22:33:27.122Z,9.77
2022-11-03T22:36:21.264Z,8.75
2022-11-03T22:39:07.030Z,10.23
2022-11-03T22:41:52.474Z,9.00
2022-11-03T22:44:37.415Z,9.52
2022-11-03T22:47:08.164Z,9.00
2022-11-03T22:49:35.615Z,10.13
2022-11-03T22:52:03.001Z,8.82
2022-11-03T22:54:29.605Z,8.77
2022-11-03T22:56:56.310Z,8.32
2022-11-03T22:59:23.015Z,8.27
2022-11-03T23:01:49.852Z,8.68
2022-11-03T23:04:16.849Z,8.63
2022-11-03T23:07:02.377Z,8.25
2022-11-03T23:09:29.046Z,8.23
2022-11-03T23:11:55.986Z,7.75
2022-11-03T23:14:23.180Z,8.25
2022-11-03T23:16:49.851Z,9.20
2022-11-03T23:19:35.211Z,9.32
2022-11-03T23:22:01.946Z,9.13
2022-11-03T23:24:47.071Z,9.25
2022-11-03T23:27:13.969Z,9.60
2022-11-03T23:29:40.659Z,8.13
2022-11-03T23:32:07.443Z,8.95
2022-11-03T23:34:35.210Z,9.63
2022-11-03T23:37:02.528Z,9.63
2022-11-03T23:39:29.358Z,9.95
2022-11-03T23:41:55.957Z,9.77
2022-11-03T23:44:22.489Z,8.93
2022-11-03T23:47:07.939Z,9.65
2022-11-03T23:49:34.686Z,9.55
2022-11-03T23:52:01.341Z,9.65
2022-11-03T23:54:28.141Z,9.73
2022-11-03T23:57:13.404Z,10.00
2022-11-03T23:59:40.339Z,9.70
